Time;durP1;ratioP1;P1;durP2;ratioP2;P2;SDS_P1;SDS_P2;PMS_P1;PMS_P2;Temp;Humidity;BMP_temperature;BMP_pressure;BME280_temperature;BME280_humidity;BME280_pressure;Samples;Min_cycle;Max_cycle;Signal;HPM_P1;HPM_P2
2024/04/08 00:00:48;;;;;;;3.83;0.30;;;20.10;79.20;;;;;;5422515;26;20076;-67
2024/04/08 00:03:14;;;;;;;10.85;0.70;;;20.10;79.20;;;;;;5421444;26;20393;-67
2024/04/08 00:05:39;;;;;;;5.10;0.50;;;20.20;79.30;;;;;;5420737;26;20007;-66
2024/04/08 00:08:05;;;;;;;5.00;0.40;;;20.10;79.30;;;;;;5426477;26;20469;-67
2024/04/08 00:10:30;;;;;;;13.48;0.85;;;20.20;79.10;;;;;;5432518;26;20009;-67
2024/04/08 00:12:56;;;;;;;2.72;0.40;;;20.20;79.10;;;;;;5417130;26;20018;-67
2024/04/08 00:15:28;;;;;;;4.15;0.40;;;20.20;79.30;;;;;;5426411;26;20011;-66
2024/04/08 00:17:54;;;;;;;4.93;0.40;;;20.20;79.40;;;;;;5421636;26;20003;-67
2024/04/08 00:20:19;;;;;;;4.22;0.45;;;20.10;79.10;;;;;;5431402;26;20013;-66
2024/04/08 00:22:46;;;;;;;5.50;0.40;;;20.10;79.20;;;;;;5433179;26;20003;-66
2024/04/08 00:25:12;;;;;;;2.15;0.22;;;20.10;79.40;;;;;;5434337;26;20535;-66
2024/04/08 00:27:38;;;;;;;5.75;0.60;;;20.10;80.00;;;;;;5434963;26;19998;-67
2024/04/08 00:30:04;;;;;;;6.30;0.47;;;20.10;80.20;;;;;;5425113;26;20006;-62
2024/04/08 00:32:30;;;;;;;3.50;0.40;;;20.10;80.20;;;;;;5439099;26;20038;-66
2024/04/08 00:34:56;;;;;;;2.63;0.25;;;20.10;80.00;;;;;;5432244;26;20579;-66
2024/04/08 00:37:22;;;;;;;4.38;0.50;;;20.10;80.00;;;;;;5422791;26;20021;-66
2024/04/08 00:39:47;;;;;;;3.65;0.40;;;20.00;80.00;;;;;;5405110;26;20180;-66
2024/04/08 00:42:13;;;;;;;5.80;0.52;;;20.00;80.10;;;;;;5429694;26;20481;-66
2024/04/08 00:44:39;;;;;;;3.28;0.30;;;20.10;80.00;;;;;;5421425;26;20518;-66
2024/04/08 00:47:05;;;;;;;3.97;0.40;;;20.00;79.80;;;;;;5420005;26;20052;-67
2024/04/08 00:49:32;;;;;;;3.78;0.40;;;20.00;79.50;;;;;;5430508;26;20011;-66
2024/04/08 00:51:58;;;;;;;;;;;20.10;79.40;;;;;;5425295;26;19999;-65
2024/04/08 00:54:25;;;;;;;3.72;0.40;;;20.10;79.40;;;;;;5423473;26;20005;-65
2024/04/08 00:56:53;;;;;;;5.88;0.40;;;20.10;80.10;;;;;;5440982;26;20003;-67
2024/04/08 00:59:21;;;;;;;4.75;0.40;;;20.00;79.70;;;;;;5451393;26;20065;-66
2024/04/08 01:01:48;;;;;;;3.33;0.30;;;20.00;80.00;;;;;;5426639;26;20002;-66
2024/04/08 01:04:20;;;;;;;3.67;0.40;;;20.00;80.10;;;;;;5422730;26;20331;-67
2024/04/08 01:06:46;;;;;;;2.38;0.20;;;19.90;80.30;;;;;;5410608;26;19999;-68
2024/04/08 01:09:12;;;;;;;5.72;0.50;;;19.90;80.50;;;;;;5401754;26;20009;-67
2024/04/08 01:11:38;;;;;;;10.85;0.85;;;19.90;80.50;;;;;;5438188;26;20011;-67
2024/04/08 01:14:03;;;;;;;4.82;0.52;;;19.90;80.60;;;;;;5420692;26;20011;-66
2024/04/08 01:16:29;;;;;;;4.03;0.40;;;19.90;80.60;;;;;;5442915;26;20010;-68
2024/04/08 01:18:54;;;;;;;3.15;0.40;;;19.80;80.70;;;;;;5437630;26;20006;-67
2024/04/08 01:21:20;;;;;;;3.22;0.30;;;19.80;80.60;;;;;;5425979;26;20009;-67
2024/04/08 01:23:45;;;;;;;7.80;0.57;;;19.80;80.40;;;;;;5423989;26;20453;-66
2024/04/08 01:26:11;;;;;;;6.60;0.55;;;19.80;80.10;;;;;;5425441;26;20064;-66
2024/04/08 01:28:38;;;;;;;3.67;0.40;;;19.80;80.10;;;;;;5427607;26;20033;-66
2024/04/08 01:31:04;;;;;;;;;;;19.80;79.90;;;;;;5418183;26;19991;-67
2024/04/08 01:33:33;;;;;;;3.38;0.32;;;19.80;79.80;;;;;;5426265;26;19931;-67
2024/04/08 01:36:03;;;;;;;3.42;0.45;;;19.80;79.90;;;;;;5433667;26;20018;-68
2024/04/08 01:38:29;;;;;;;12.27;0.85;;;19.80;79.80;;;;;;5400033;26;20015;-67
2024/04/08 01:41:01;;;;;;;7.65;0.55;;;19.70;80.40;;;;;;5428730;26;20130;-67
2024/04/08 01:43:27;;;;;;;2.55;0.38;;;19.80;80.60;;;;;;5430931;26;20021;-66
2024/04/08 01:45:52;;;;;;;4.28;0.45;;;19.70;80.50;;;;;;5432280;26;20375;-67
2024/04/08 01:48:18;;;;;;;6.95;0.52;;;19.80;80.60;;;;;;5445576;26;20341;-68
2024/04/08 01:50:50;;;;;;;5.20;0.30;;;19.70;80.80;;;;;;5427126;26;19998;-67
2024/04/08 01:53:16;;;;;;;6.57;0.60;;;19.60;81.10;;;;;;5440078;26;20018;-67
2024/04/08 01:55:42;;;;;;;3.80;0.40;;;19.60;81.10;;;;;;5425797;26;20409;-66
2024/04/08 01:58:07;;;;;;;12.43;0.88;;;19.60;81.00;;;;;;5437425;26;20755;-66
2024/04/08 02:00:33;;;;;;;3.65;0.40;;;19.60;81.30;;;;;;5434057;26;20435;-68
2024/04/08 02:02:58;;;;;;;6.22;0.50;;;19.60;81.50;;;;;;5441797;26;20002;-68
2024/04/08 02:05:24;;;;;;;3.78;0.47;;;19.60;81.50;;;;;;5445002;26;20007;-67
2024/04/08 02:07:50;;;;;;;3.90;0.40;;;19.60;81.60;;;;;;5425058;26;19995;-66
2024/04/08 02:10:18;;;;;;;3.58;0.43;;;19.60;81.80;;;;;;5414886;26;20007;-66
2024/04/08 02:12:44;;;;;;;3.05;0.28;;;19.60;81.80;;;;;;5442930;26;19995;-67
2024/04/08 02:15:09;;;;;;;2.00;0.20;;;19.60;81.80;;;;;;5433881;26;20011;-66
2024/04/08 02:17:35;;;;;;;5.55;0.40;;;19.60;81.60;;;;;;5399076;26;20329;-66
2024/04/08 02:20:01;;;;;;;4.60;0.40;;;19.50;82.10;;;;;;5396143;26;20035;-66
2024/04/08 02:22:26;;;;;;;6.15;0.45;;;19.50;82.70;;;;;;5416712;26;20004;-66
2024/04/08 02:24:52;;;;;;;10.52;0.70;;;19.50;83.10;;;;;;5441022;26;20010;-66
2024/04/08 02:27:17;;;;;;;2.35;0.40;;;19.40;83.50;;;;;;5438643;26;20002;-66
2024/04/08 02:29:45;;;;;;;7.55;0.60;;;19.40;83.50;;;;;;5425357;26;20007;-67
2024/04/08 02:32:17;;;;;;;5.75;0.55;;;19.40;83.70;;;;;;5441254;26;21114;-63
2024/04/08 02:34:43;;;;;;;2.22;0.38;;;19.40;83.80;;;;;;5431177;26;20007;-65
2024/04/08 02:37:09;;;;;;;5.35;0.50;;;19.40;83.90;;;;;;5428466;26;20348;-66
2024/04/08 02:39:35;;;;;;;3.50;0.40;;;19.40;83.60;;;;;;5435685;26;20303;-66
2024/04/08 02:42:05;;;;;;;4.20;0.40;;;19.40;83.20;;;;;;5444201;26;20310;-67
2024/04/08 02:44:32;;;;;;;4.75;0.63;;;19.40;83.40;;;;;;5439783;26;19995;-67
2024/04/08 02:46:58;;;;;;;8.13;0.50;;;19.40;83.50;;;;;;5389567;26;19999;-65
2024/04/08 02:49:24;;;;;;;2.25;0.30;;;19.30;83.70;;;;;;5414967;26;19999;-66
2024/04/08 02:51:49;;;;;;;3.47;0.22;;;19.30;84.10;;;;;;5417125;26;20011;-66
2024/04/08 02:54:15;;;;;;;5.22;0.40;;;19.30;84.40;;;;;;5416365;26;20013;-67
2024/04/08 02:56:40;;;;;;;3.17;0.38;;;19.20;84.60;;;;;;5416629;26;20015;-67
2024/04/08 02:59:06;;;;;;;3.35;0.35;;;19.10;85.20;;;;;;5417046;26;20007;-66
2024/04/08 03:01:31;;;;;;;2.63;0.45;;;19.00;85.10;;;;;;5426168;26;20023;-65
2024/04/08 03:03:57;;;;;;;5.75;0.40;;;19.00;85.50;;;;;;5425284;26;20004;-65
2024/04/08 03:06:23;;;;;;;3.28;0.38;;;19.00;85.60;;;;;;5460365;26;19998;-67
2024/04/08 03:08:49;;;;;;;4.70;0.43;;;18.90;85.80;;;;;;5478412;26;20038;-65
2024/04/08 03:11:15;;;;;;;6.05;0.35;;;18.90;86.10;;;;;;5442600;26;20006;-66
2024/04/08 03:13:40;;;;;;;3.88;0.45;;;18.90;86.40;;;;;;5461719;26;20017;-65
2024/04/08 03:16:06;;;;;;;4.53;0.40;;;18.80;86.80;;;;;;5473293;26;20084;-67
2024/04/08 03:18:32;;;;;;;4.45;0.30;;;18.80;86.70;;;;;;5494350;26;20016;-67
2024/04/08 03:21:02;;;;;;;3.60;0.40;;;18.80;86.50;;;;;;5477971;26;20009;-65
2024/04/08 03:23:28;;;;;;;5.13;0.60;;;18.80;86.70;;;;;;5468372;26;20088;-67
2024/04/08 03:26:04;;;;;;;2.17;0.30;;;18.80;86.50;;;;;;5448011;26;19998;-67
2024/04/08 03:28:30;;;;;;;12.18;0.90;;;18.80;86.70;;;;;;5446825;26;19994;-67
2024/04/08 03:30:56;;;;;;;13.95;0.93;;;18.80;86.80;;;;;;5457682;26;20009;-67
2024/04/08 03:33:29;;;;;;;4.05;0.32;;;18.80;86.80;;;;;;5453514;26;20438;-66
2024/04/08 03:35:55;;;;;;;4.82;0.52;;;18.80;86.80;;;;;;5462069;26;20434;-67
2024/04/08 03:38:21;;;;;;;2.97;0.50;;;18.80;86.90;;;;;;5455281;26;20014;-66
2024/04/08 03:40:56;;;;;;;5.63;0.40;;;18.80;87.00;;;;;;5441837;26;19995;-67
2024/04/08 03:43:22;;;;;;;2.63;0.40;;;18.80;87.20;;;;;;5469703;26;20014;-66
2024/04/08 03:45:50;;;;;;;3.55;0.50;;;18.70;87.30;;;;;;5471530;26;19998;-66
2024/04/08 03:48:15;;;;;;;9.27;0.70;;;18.70;87.40;;;;;;5470137;26;20333;-66
2024/04/08 03:50:41;;;;;;;2.58;0.40;;;18.50;87.70;;;;;;5462070;26;20044;-67
2024/04/08 03:53:06;;;;;;;4.05;0.40;;;18.50;88.30;;;;;;5481602;26;20433;-66
2024/04/08 03:55:32;;;;;;;3.97;0.43;;;18.40;88.50;;;;;;5459463;26;20317;-66
2024/04/08 03:57:58;;;;;;;6.00;0.50;;;18.40;88.70;;;;;;5463157;26;20093;-66
2024/04/08 04:00:24;;;;;;;2.33;0.40;;;18.30;88.70;;;;;;5465127;26;20025;-65
2024/04/08 04:02:51;;;;;;;9.27;0.90;;;18.20;88.90;;;;;;5455806;26;20006;-66
2024/04/08 04:05:20;;;;;;;4.20;0.70;;;18.10;89.40;;;;;;5462964;26;20093;-67
2024/04/08 04:07:47;;;;;;;4.05;0.55;;;18.10;89.70;;;;;;5430908;26;20011;-66
2024/04/08 04:10:12;;;;;;;4.18;0.40;;;18.10;90.00;;;;;;5459049;26;20464;-66
2024/04/08 04:12:39;;;;;;;2.92;0.50;;;18.00;90.00;;;;;;5456764;26;19998;-67
2024/04/08 04:15:15;;;;;;;3.13;0.60;;;18.10;90.00;;;;;;5457025;26;20044;-67
2024/04/08 04:17:44;;;;;;;6.32;0.60;;;18.10;90.10;;;;;;5450704;26;20475;-67
2024/04/08 04:20:11;;;;;;;4.55;0.52;;;18.00;90.00;;;;;;5455829;26;20070;-66
2024/04/08 04:22:37;;;;;;;4.55;0.60;;;18.00;90.20;;;;;;5461227;26;20081;-67
2024/04/08 04:25:03;;;;;;;13.35;0.90;;;17.90;90.30;;;;;;5461296;26;20071;-66
2024/04/08 04:27:35;;;;;;;2.95;0.47;;;17.90;90.40;;;;;;5450909;26;19998;-67
2024/04/08 04:30:02;;;;;;;8.35;0.77;;;17.80;90.40;;;;;;5459655;26;20303;-66
2024/04/08 04:32:33;;;;;;;4.40;0.50;;;17.80;90.50;;;;;;5460669;26;19998;-67
2024/04/08 04:34:59;;;;;;;9.55;0.90;;;17.80;90.50;;;;;;5468324;26;20525;-66
2024/04/08 04:37:25;;;;;;;5.45;0.70;;;17.80;90.50;;;;;;5463064;26;20459;-66
2024/04/08 04:39:56;;;;;;;4.00;0.60;;;17.80;90.50;;;;;;5440514;26;20086;-67
2024/04/08 04:42:22;;;;;;;4.75;0.60;;;17.80;90.50;;;;;;5457971;26;20056;-66
2024/04/08 04:44:47;;;;;;;3.95;0.50;;;17.80;90.60;;;;;;5456933;26;20005;-66
2024/04/08 04:47:13;;;;;;;9.35;0.80;;;17.80;90.70;;;;;;5469293;26;20016;-66
2024/04/08 04:49:39;;;;;;;11.55;1.02;;;17.80;90.70;;;;;;5460652;26;20009;-67
2024/04/08 04:52:05;;;;;;;12.48;1.00;;;17.80;90.70;;;;;;5460816;26;20002;-66
2024/04/08 04:54:30;;;;;;;7.03;0.65;;;17.80;90.60;;;;;;5445047;26;20074;-67
2024/04/08 04:56:56;;;;;;;5.18;0.47;;;17.80;90.60;;;;;;5463512;26;20010;-67
2024/04/08 04:59:22;;;;;;;4.07;0.57;;;17.70;90.70;;;;;;5458430;26;19995;-66
2024/04/08 05:01:48;;;;;;;5.32;0.55;;;17.70;90.60;;;;;;5465193;26;20038;-67
2024/04/08 05:04:14;;;;;;;4.22;0.70;;;17.60;90.80;;;;;;5467909;26;20013;-66
2024/04/08 05:06:39;;;;;;;10.50;0.77;;;17.60;90.90;;;;;;5445871;26;20034;-65
2024/04/08 05:09:05;;;;;;;3.83;0.50;;;17.50;90.90;;;;;;5466271;25;20009;-65
2024/04/08 05:11:31;;;;;;;5.15;0.60;;;17.50;91.00;;;;;;5465053;26;19994;-65
2024/04/08 05:13:56;;;;;;;3.40;0.50;;;17.50;90.90;;;;;;5446359;26;19998;-65
2024/04/08 05:16:22;;;;;;;5.07;0.60;;;17.50;91.00;;;;;;5462830;26;20005;-65
2024/04/08 05:18:48;;;;;;;7.80;0.70;;;17.50;90.90;;;;;;5435364;26;20026;-65
2024/04/08 05:21:13;;;;;;;7.15;0.60;;;17.50;91.00;;;;;;5460736;26;20014;-65
2024/04/08 05:23:39;;;;;;;5.75;0.50;;;17.50;90.90;;;;;;5460434;26;20088;-65
2024/04/08 05:26:04;;;;;;;6.15;0.60;;;17.50;90.90;;;;;;5467307;26;20003;-64
2024/04/08 05:28:30;;;;;;;5.93;0.70;;;17.50;91.00;;;;;;5431741;26;20003;-65
2024/04/08 05:30:56;;;;;;;7.20;0.70;;;17.60;91.00;;;;;;5468247;26;20002;-65
2024/04/08 05:33:27;;;;;;;7.28;0.50;;;17.60;91.00;;;;;;5459667;26;20011;-65
2024/04/08 05:35:53;;;;;;;6.13;0.65;;;17.60;91.00;;;;;;5427947;26;19997;-66
2024/04/08 05:38:19;;;;;;;4.75;0.60;;;17.60;91.00;;;;;;5446427;26;20009;-65
2024/04/08 05:40:44;;;;;;;7.07;0.70;;;17.70;91.00;;;;;;5447267;26;20009;-66
2024/04/08 05:43:14;;;;;;;7.10;0.88;;;17.70;91.00;;;;;;5467644;26;20005;-65
2024/04/08 05:45:40;;;;;;;12.77;1.00;;;17.70;91.00;;;;;;5458635;26;20291;-66
2024/04/08 05:48:06;;;;;;;10.48;0.93;;;17.70;91.00;;;;;;5459694;26;20074;-65
2024/04/08 05:50:31;;;;;;;12.95;1.00;;;17.80;91.00;;;;;;5470383;26;20419;-65
2024/04/08 05:52:57;;;;;;;6.80;0.70;;;17.90;90.90;;;;;;5464787;26;19995;-64
2024/04/08 05:55:23;;;;;;;7.97;0.50;;;17.90;90.80;;;;;;5466532;26;20005;-66
2024/04/08 05:57:48;;;;;;;5.93;0.60;;;18.00;90.80;;;;;;5459660;26;20006;-66
2024/04/08 06:00:16;;;;;;;6.38;0.70;;;18.00;90.70;;;;;;5456726;26;20006;-66
2024/04/08 06:02:42;;;;;;;5.95;0.60;;;18.00;90.70;;;;;;5429955;26;20016;-66
2024/04/08 06:05:08;;;;;;;11.50;1.00;;;18.10;90.80;;;;;;5419179;26;20003;-66
2024/04/08 06:07:34;;;;;;;4.53;0.60;;;18.10;90.60;;;;;;5433757;26;20496;-66
2024/04/08 06:10:00;;;;;;;5.35;0.73;;;18.20;90.90;;;;;;5466728;26;20009;-67
2024/04/08 06:12:31;;;;;;;9.18;0.90;;;18.20;90.60;;;;;;5468871;26;20009;-66
2024/04/08 06:15:05;;;;;;;11.45;1.00;;;18.40;90.50;;;;;;5461843;26;20018;-66
2024/04/08 06:17:31;;;;;;;4.45;0.50;;;18.40;90.40;;;;;;5443570;26;20006;-65
2024/04/08 06:19:56;;;;;;;6.82;0.68;;;18.50;90.30;;;;;;5455164;26;20034;-66
2024/04/08 06:22:22;;;;;;;9.20;0.98;;;18.50;90.30;;;;;;5463679;26;20042;-66
2024/04/08 06:24:47;;;;;;;4.65;0.40;;;18.60;90.30;;;;;;5468350;26;23182;-65
2024/04/08 06:27:13;;;;;;;4.72;0.50;;;18.60;90.10;;;;;;5457763;26;20329;-66
2024/04/08 06:29:39;;;;;;;8.50;0.77;;;18.70;90.10;;;;;;5461961;26;20001;-65
2024/04/08 06:32:05;;;;;;;8.40;0.80;;;18.80;89.80;;;;;;5462801;26;20095;-64
2024/04/08 06:34:30;;;;;;;3.13;0.50;;;18.90;89.40;;;;;;5467083;26;20512;-65
2024/04/08 06:36:56;;;;;;;11.68;0.85;;;19.00;89.30;;;;;;5463155;26;20070;-66
2024/04/08 06:39:21;;;;;;;6.18;0.60;;;19.00;89.20;;;;;;5445392;25;20172;-66
2024/04/08 06:41:47;;;;;;;6.40;0.60;;;19.10;88.60;;;;;;5472004;26;20053;-67
2024/04/08 06:44:12;;;;;;;4.57;0.47;;;19.20;88.40;;;;;;5476701;26;20013;-66
2024/04/08 06:46:38;;;;;;;4.68;0.52;;;19.20;88.20;;;;;;5466354;26;20066;-66
2024/04/08 06:49:04;;;;;;;8.15;0.68;;;19.30;88.10;;;;;;5458826;26;20008;-66
2024/04/08 06:51:35;;;;;;;9.77;1.00;;;19.40;87.60;;;;;;5447221;26;20014;-66
2024/04/08 06:54:01;;;;;;;7.00;0.60;;;19.50;86.90;;;;;;5453893;26;20011;-67
2024/04/08 06:56:27;;;;;;;4.20;0.50;;;19.60;86.70;;;;;;5454585;26;20273;-67
2024/04/08 06:58:52;;;;;;;7.45;0.70;;;19.70;86.90;;;;;;5464141;26;20337;-67
2024/04/08 07:01:20;;;;;;;3.67;0.55;;;19.80;86.90;;;;;;5466401;26;20087;-66
2024/04/08 07:03:46;;;;;;;3.00;0.52;;;19.90;85.30;;;;;;5455846;26;20010;-66
2024/04/08 07:06:11;;;;;;;10.13;0.90;;;20.10;85.20;;;;;;5467518;26;19998;-67
2024/04/08 07:08:37;;;;;;;5.10;0.50;;;20.20;83.50;;;;;;5460002;26;20037;-67
2024/04/08 07:11:09;;;;;;;4.25;0.30;;;20.40;77.80;;;;;;5455418;26;20448;-67
2024/04/08 07:13:36;;;;;;;4.28;0.30;;;20.50;77.50;;;;;;5453757;26;20406;-67
2024/04/08 07:16:03;;;;;;;2.35;0.43;;;20.60;77.00;;;;;;5454707;26;20002;-66
2024/04/08 07:18:29;;;;;;;4.72;0.50;;;20.70;78.50;;;;;;5464075;26;20010;-67
2024/04/08 07:20:55;;;;;;;4.43;0.40;;;20.80;75.60;;;;;;5453666;26;20003;-66
2024/04/08 07:23:21;;;;;;;4.68;0.47;;;21.00;75.70;;;;;;5450621;26;20038;-67
2024/04/08 07:25:46;;;;;;;2.50;0.30;;;21.10;77.20;;;;;;5450175;26;20017;-67
2024/04/08 07:28:12;;;;;;;5.13;0.50;;;21.30;77.20;;;;;;5456002;26;20007;-66
2024/04/08 07:30:40;;;;;;;3.30;0.35;;;21.30;78.20;;;;;;5468525;26;20074;-67
2024/04/08 07:33:06;;;;;;;4.50;0.47;;;21.40;78.70;;;;;;5438268;26;20338;-67
2024/04/08 07:35:32;;;;;;;7.00;0.60;;;21.50;79.70;;;;;;5460213;26;19997;-66
2024/04/08 07:37:58;;;;;;;6.75;0.85;;;21.50;78.80;;;;;;5477774;26;19994;-67
2024/04/08 07:40:24;;;;;;;4.20;0.50;;;21.60;79.20;;;;;;5479766;26;20055;-67
2024/04/08 07:42:49;;;;;;;5.30;0.70;;;21.60;77.40;;;;;;5444119;26;20281;-66
2024/04/08 07:45:15;;;;;;;6.65;0.50;;;21.60;78.30;;;;;;5426617;26;20010;-66
2024/04/08 07:47:40;;;;;;;9.30;1.00;;;21.70;79.20;;;;;;5462906;26;19998;-66
2024/04/08 07:50:07;;;;;;;3.25;0.50;;;21.70;79.00;;;;;;5443687;26;20033;-65
2024/04/08 07:52:37;;;;;;;5.30;0.63;;;21.60;79.80;;;;;;5459679;26;19994;-67
2024/04/08 07:55:06;;;;;;;4.47;0.57;;;21.60;79.60;;;;;;5460109;26;20566;-66
2024/04/08 07:57:37;;;;;;;8.55;0.65;;;21.60;79.10;;;;;;5460277;26;20770;-66
2024/04/08 08:00:04;;;;;;;8.55;0.70;;;21.50;79.80;;;;;;5424000;26;20018;-66
2024/04/08 08:02:30;;;;;;;3.10;0.50;;;21.50;79.30;;;;;;5449818;26;20003;-66
2024/04/08 08:04:56;;;;;;;3.70;0.50;;;21.50;79.20;;;;;;5459651;26;20009;-65
2024/04/08 08:07:21;;;;;;;4.60;0.40;;;21.50;79.30;;;;;;5434309;26;20020;-68
2024/04/08 08:09:47;;;;;;;7.32;0.70;;;21.60;78.00;;;;;;5462735;26;20003;-65
2024/04/08 08:12:19;;;;;;;1.73;0.32;;;21.50;76.70;;;;;;5459981;26;20030;-67
2024/04/08 08:14:46;;;;;;;3.60;0.50;;;21.50;78.80;;;;;;5458599;26;19991;-66
2024/04/08 08:17:12;;;;;;;3.88;0.60;;;21.50;78.80;;;;;;5471631;26;19994;-66
2024/04/08 08:19:37;;;;;;;2.65;0.40;;;21.60;78.20;;;;;;5432692;26;20046;-66
2024/04/08 08:22:03;;;;;;;7.45;0.60;;;21.60;78.60;;;;;;5462330;26;20013;-66
2024/04/08 08:24:29;;;;;;;9.70;0.90;;;21.60;75.80;;;;;;5459934;26;20010;-66
2024/04/08 08:26:56;;;;;;;5.85;0.40;;;21.60;76.20;;;;;;5458207;26;20014;-66
2024/04/08 08:29:21;;;;;;;4.55;0.52;;;21.60;76.60;;;;;;5455666;26;20489;-66
2024/04/08 08:31:47;;;;;;;6.32;0.63;;;21.70;76.50;;;;;;5462394;26;19994;-68
2024/04/08 08:34:13;;;;;;;5.88;0.60;;;21.70;74.10;;;;;;5462442;26;19999;-67
2024/04/08 08:36:38;;;;;;;11.23;0.90;;;21.60;74.70;;;;;;5455265;26;20070;-65
2024/04/08 08:39:04;;;;;;;5.18;0.57;;;21.70;76.10;;;;;;5420970;26;20089;-67
2024/04/08 08:41:30;;;;;;;4.15;0.32;;;21.80;74.60;;;;;;5437560;26;19994;-67
2024/04/08 08:44:01;;;;;;;7.32;0.60;;;21.80;73.70;;;;;;5460137;26;20075;-66
2024/04/08 08:46:28;;;;;;;2.15;0.35;;;21.80;74.60;;;;;;5457112;26;19995;-67
2024/04/08 08:48:59;;;;;;;5.10;0.50;;;21.80;74.20;;;;;;5460746;26;20006;-66
2024/04/08 08:51:26;;;;;;;4.97;0.40;;;21.80;73.30;;;;;;5454681;26;20106;-67
2024/04/08 08:53:52;;;;;;;2.22;0.40;;;21.90;73.70;;;;;;5431837;26;20476;-65
2024/04/08 08:56:17;;;;;;;4.32;0.40;;;21.90;73.30;;;;;;5449833;26;19994;-65
2024/04/08 08:58:53;;;;;;;5.32;0.43;;;22.00;73.90;;;;;;5457684;26;20016;-67
2024/04/08 09:01:20;;;;;;;6.05;0.47;;;22.10;73.60;;;;;;5448211;26;20051;-66
2024/04/08 09:03:46;;;;;;;4.70;0.45;;;22.10;73.20;;;;;;5450224;26;20046;-67
2024/04/08 09:06:12;;;;;;;5.65;0.55;;;22.30;73.50;;;;;;5446289;26;20013;-68
2024/04/08 09:08:38;;;;;;;3.42;0.30;;;22.30;73.60;;;;;;5461035;26;20002;-66
2024/04/08 09:11:10;;;;;;;4.00;0.50;;;22.40;73.20;;;;;;5459117;26;20348;-67
2024/04/08 09:13:36;;;;;;;5.40;0.60;;;22.40;71.60;;;;;;5451786;26;20031;-69
2024/04/08 09:16:02;;;;;;;3.75;0.50;;;22.40;72.40;;;;;;5463344;26;20437;-69
2024/04/08 09:18:27;;;;;;;3.50;0.40;;;22.40;71.40;;;;;;5458539;26;20009;-67
2024/04/08 09:20:53;;;;;;;8.40;0.60;;;22.40;71.60;;;;;;5460348;26;19990;-68
2024/04/08 09:23:18;;;;;;;10.15;0.70;;;22.40;72.40;;;;;;5467972;26;20020;-66
2024/04/08 09:25:45;;;;;;;5.78;0.52;;;22.40;71.70;;;;;;5468115;26;20035;-68
2024/04/08 09:28:11;;;;;;;6.35;0.55;;;22.50;73.10;;;;;;5463092;26;20011;-67
2024/04/08 09:30:38;;;;;;;4.00;0.40;;;22.50;72.60;;;;;;5460104;26;20010;-66
2024/04/08 09:33:11;;;;;;;2.85;0.30;;;22.70;72.10;;;;;;5442051;26;20001;-68
2024/04/08 09:35:42;;;;;;;4.78;0.60;;;22.80;72.60;;;;;;5465172;26;20004;-67
2024/04/08 09:38:09;;;;;;;3.17;0.40;;;22.80;73.20;;;;;;5457025;26;20470;-68
2024/04/08 09:40:35;;;;;;;3.13;0.30;;;22.90;72.90;;;;;;5466809;26;20070;-68
2024/04/08 09:43:06;;;;;;;5.90;0.50;;;23.00;72.20;;;;;;5468787;25;20013;-68
2024/04/08 09:45:35;;;;;;;4.55;0.60;;;23.00;71.70;;;;;;5474021;26;19998;-68
2024/04/08 09:48:01;;;;;;;4.53;0.65;;;23.00;72.40;;;;;;5462152;26;20433;-67
2024/04/08 09:50:27;;;;;;;3.03;0.30;;;23.20;72.50;;;;;;5459701;26;19995;-67
2024/04/08 09:52:54;;;;;;;9.95;0.70;;;23.20;73.20;;;;;;5463211;26;19998;-68
2024/04/08 09:55:26;;;;;;;12.10;1.00;;;23.40;71.10;;;;;;5456826;26;19999;-68
2024/04/08 09:57:53;;;;;;;3.97;0.50;;;23.50;72.00;;;;;;5462733;26;20095;-67
2024/04/08 10:00:19;;;;;;;4.97;0.50;;;23.50;71.50;;;;;;5456013;26;20349;-68
2024/04/08 10:02:46;;;;;;;3.80;0.50;;;23.60;71.30;;;;;;5464230;26;20069;-67
2024/04/08 10:05:13;;;;;;;4.05;0.40;;;23.70;68.70;;;;;;5440194;26;20067;-69
2024/04/08 10:07:40;;;;;;;5.30;0.30;;;23.70;68.60;;;;;;5461457;26;20658;-69
2024/04/08 10:10:13;;;;;;;8.23;0.60;;;23.70;70.00;;;;;;5462121;26;20046;-67
2024/04/08 10:12:41;;;;;;;4.05;0.47;;;23.80;69.60;;;;;;5465671;26;19990;-68
2024/04/08 10:15:16;;;;;;;4.43;0.45;;;23.70;70.00;;;;;;5458507;26;20483;-68
2024/04/08 10:17:48;;;;;;;1.88;0.30;;;23.80;70.70;;;;;;5457151;26;20017;-67
2024/04/08 10:20:16;;;;;;;3.47;0.40;;;23.70;70.60;;;;;;5465598;26;20460;-67
2024/04/08 10:22:44;;;;;;;5.65;0.45;;;23.80;69.90;;;;;;5467324;26;20070;-67
2024/04/08 10:25:28;;;;;;;;;;;23.90;70.00;;;;;;5460435;26;20033;-67
2024/04/08 10:28:10;;;;;;;8.20;0.60;;;24.00;69.90;;;;;;5465251;26;19931;-66
2024/04/08 10:30:41;;;;;;;1.55;0.30;;;24.00;70.10;;;;;;5457335;26;20161;-67
2024/04/08 10:33:07;;;;;;;5.05;0.45;;;24.00;69.50;;;;;;5461075;26;20388;-68
2024/04/08 10:35:33;;;;;;;12.00;0.75;;;24.00;69.00;;;;;;5433742;26;20408;-67
2024/04/08 10:37:59;;;;;;;4.97;0.57;;;24.10;69.30;;;;;;5467231;26;20006;-68
2024/04/08 10:40:24;;;;;;;5.88;0.50;;;24.10;69.80;;;;;;5459017;26;20128;-67
2024/04/08 10:42:51;;;;;;;4.07;0.40;;;24.20;70.00;;;;;;5435091;26;19997;-67
2024/04/08 10:45:23;;;;;;;7.82;0.45;;;24.20;69.10;;;;;;5433930;26;20012;-68
2024/04/08 10:47:54;;;;;;;4.78;0.40;;;24.30;68.90;;;;;;5463240;26;20038;-67
2024/04/08 10:50:20;;;;;;;12.85;1.30;;;24.20;68.80;;;;;;5463521;26;20009;-68
2024/04/08 10:52:45;;;;;;;10.15;0.93;;;24.20;68.90;;;;;;5463441;26;20041;-68
2024/04/08 10:55:11;;;;;;;3.25;0.57;;;24.10;69.20;;;;;;5467225;26;19998;-69
2024/04/08 10:57:37;;;;;;;5.45;0.47;;;24.10;68.90;;;;;;5465107;26;20028;-67
2024/04/08 11:00:05;;;;;;;5.28;0.50;;;24.10;70.00;;;;;;5466298;26;20034;-69
2024/04/08 11:02:32;;;;;;;;;;;24.10;71.20;;;;;;5460860;26;20002;-68
2024/04/08 11:04:59;;;;;;;10.35;0.80;;;24.10;68.40;;;;;;5464647;26;19924;-66
2024/04/08 11:07:25;;;;;;;4.45;0.43;;;24.20;67.40;;;;;;5460220;26;20444;-68
2024/04/08 11:09:50;;;;;;;8.27;0.50;;;24.30;67.70;;;;;;5459447;26;19998;-68
2024/04/08 11:12:16;;;;;;;3.63;0.40;;;24.40;67.90;;;;;;5463735;26;20010;-67
2024/04/08 11:14:42;;;;;;;1.13;0.20;;;24.60;69.20;;;;;;5463517;26;20003;-68
2024/04/08 11:17:10;;;;;;;2.72;0.30;;;24.60;69.60;;;;;;5461620;26;19998;-67
2024/04/08 11:19:38;;;;;;;4.43;0.45;;;24.60;69.20;;;;;;5465603;26;20036;-66
2024/04/08 11:22:10;;;;;;;12.75;1.00;;;24.70;69.50;;;;;;5459709;26;20030;-68
2024/04/08 11:24:42;;;;;;;6.50;0.38;;;24.80;68.20;;;;;;5463279;26;19999;-66
2024/04/08 11:27:08;;;;;;;6.60;0.50;;;24.90;68.60;;;;;;5464289;26;20034;-66
2024/04/08 11:29:34;;;;;;;7.95;0.50;;;25.00;69.70;;;;;;5465754;26;20002;-68
2024/04/08 11:32:00;;;;;;;4.85;0.43;;;25.10;67.50;;;;;;5459404;26;20411;-67
2024/04/08 11:34:25;;;;;;;11.18;0.80;;;25.10;67.10;;;;;;5465190;26;20010;-67
2024/04/08 11:36:51;;;;;;;6.57;0.60;;;25.20;66.60;;;;;;5462715;26;20011;-67
2024/04/08 11:39:17;;;;;;;6.30;0.60;;;25.30;67.00;;;;;;5424307;26;20456;-67
2024/04/08 11:41:42;;;;;;;2.20;0.40;;;25.40;66.70;;;;;;5461844;26;20010;-65
2024/04/08 11:44:08;;;;;;;5.57;0.60;;;25.40;66.10;;;;;;5461102;26;19998;-65
2024/04/08 11:46:34;;;;;;;5.93;0.63;;;25.30;66.80;;;;;;5461725;26;20028;-67
2024/04/08 11:48:59;;;;;;;4.65;0.43;;;25.40;66.80;;;;;;5465211;26;19998;-66
2024/04/08 11:51:25;;;;;;;8.55;0.55;;;25.50;64.50;;;;;;5456631;26;20010;-67
2024/04/08 11:53:50;;;;;;;11.38;1.00;;;25.60;65.90;;;;;;5462551;26;20008;-66
2024/04/08 11:56:16;;;;;;;3.22;0.28;;;25.60;66.20;;;;;;5468022;26;20002;-67
2024/04/08 11:58:42;;;;;;;9.60;0.77;;;25.70;66.80;;;;;;5433102;26;20006;-69
2024/04/08 12:01:07;;;;;;;12.63;0.80;;;25.70;66.00;;;;;;5459779;26;20456;-67
2024/04/08 12:03:33;;;;;;;14.23;1.15;;;25.60;65.00;;;;;;5458335;26;20128;-68
2024/04/08 12:06:00;;;;;;;9.52;0.68;;;25.60;66.30;;;;;;5457345;26;20006;-68
2024/04/08 12:08:32;;;;;;;3.03;0.36;;;25.60;64.30;;;;;;5316355;26;7981596;-66
2024/04/08 12:10:58;;;;;;;10.90;0.85;;;25.60;64.10;;;;;;5381343;26;20245;-68
2024/04/08 12:13:24;;;;;;;6.00;0.40;;;25.60;64.70;;;;;;5385223;26;20006;-68
2024/04/08 12:15:57;;;;;;;7.18;0.60;;;25.60;66.30;;;;;;5389628;26;20443;-67
2024/04/08 12:18:23;;;;;;;12.23;0.88;;;25.80;65.70;;;;;;5388912;26;20101;-67
2024/04/08 12:20:49;;;;;;;9.10;0.80;;;25.80;65.90;;;;;;5387346;26;19992;-67
2024/04/08 12:23:15;;;;;;;4.45;0.60;;;25.90;64.20;;;;;;5384060;26;20027;-67
2024/04/08 12:25:40;;;;;;;5.45;0.60;;;25.80;64.50;;;;;;5384933;26;20004;-66
2024/04/08 12:28:09;;;;;;;10.85;0.80;;;25.80;64.40;;;;;;5378713;26;20011;-68
2024/04/08 12:30:35;;;;;;;5.80;0.40;;;25.80;65.10;;;;;;5381645;26;20495;-67
2024/04/08 12:33:01;;;;;;;6.35;0.57;;;25.90;64.70;;;;;;5379153;26;20631;-67
2024/04/08 12:35:26;;;;;;;6.22;0.65;;;25.90;65.00;;;;;;5377670;26;20011;-67
2024/04/08 12:37:52;;;;;;;4.57;0.40;;;25.90;65.60;;;;;;5374435;26;20011;-68
2024/04/08 12:40:18;;;;;;;5.80;0.57;;;26.00;65.70;;;;;;5339432;26;20032;-68
2024/04/08 12:42:43;;;;;;;13.20;0.63;;;26.00;65.70;;;;;;5370874;26;20473;-67